createdAt,value
2018-04-07T00:00:57.419Z,77.70
2018-04-07T00:03:24.964Z,77.80
2018-04-07T00:05:52.557Z,77.90
2018-04-07T00:08:20.112Z,78.00
2018-04-07T00:10:47.717Z,77.90
2018-04-07T00:13:15.302Z,78.00
2018-04-07T00:15:42.835Z,78.10
2018-04-07T00:18:10.482Z,78.30
2018-04-07T00:20:38.286Z,78.40
2018-04-07T00:23:05.841Z,78.30
2018-04-07T00:25:33.402Z,78.50
2018-04-07T00:28:00.971Z,78.50
2018-04-07T00:30:28.827Z,78.70
2018-04-07T00:32:56.398Z,78.60
2018-04-07T00:35:23.967Z,78.70
2018-04-07T00:37:51.562Z,78.70
2018-04-07T00:40:19.110Z,78.80
2018-04-07T00:42:46.662Z,78.70
2018-04-07T00:45:14.607Z,79.10
2018-04-07T00:47:42.162Z,79.10
2018-04-07T00:50:09.717Z,79.30
2018-04-07T00:52:48.938Z,79.20
2018-04-07T00:55:16.515Z,79.40
2018-04-07T00:57:44.079Z,79.50
2018-04-07T01:00:11.626Z,79.80
2018-04-07T01:02:39.223Z,79.80
2018-04-07T01:05:06.767Z,79.70
2018-04-07T01:07:34.786Z,79.70
2018-04-07T01:10:02.333Z,79.70
2018-04-07T01:12:29.928Z,79.70
2018-04-07T01:14:57.458Z,80.00
2018-04-07T01:17:25.070Z,79.90
2018-04-07T01:19:53.007Z,80.20
2018-04-07T01:22:20.619Z,80.20
2018-04-07T01:24:48.236Z,80.50
2018-04-07T01:27:15.801Z,80.50
2018-04-07T01:29:43.390Z,80.50
2018-04-07T01:32:10.999Z,80.50
2018-04-07T01:34:38.575Z,80.60
2018-04-07T01:37:06.117Z,80.60
2018-04-07T01:39:33.655Z,80.90
2018-04-07T01:42:01.200Z,81.40
2018-04-07T01:44:28.818Z,81.20
2018-04-07T01:46:56.375Z,81.10
2018-04-07T01:49:24.360Z,81.40
2018-04-07T01:51:51.926Z,81.40
2018-04-07T01:54:19.534Z,81.70
2018-04-07T01:56:47.118Z,81.60
2018-04-07T01:59:15.119Z,81.90
2018-04-07T02:01:42.676Z,81.70
2018-04-07T02:04:10.261Z,81.90
2018-04-07T02:06:37.796Z,81.70
2018-04-07T02:09:06.214Z,81.50
2018-04-07T02:11:33.802Z,81.50
2018-04-07T02:14:01.442Z,81.40
2018-04-07T02:16:29.053Z,81.40
2018-04-07T02:18:56.625Z,81.20
2018-04-07T02:21:24.154Z,81.70
2018-04-07T02:23:51.768Z,82.20
2018-04-07T02:26:19.387Z,82.00
2018-04-07T02:28:46.976Z,81.60
2018-04-07T02:31:14.537Z,81.60
2018-04-07T02:33:42.141Z,81.70
2018-04-07T02:36:09.696Z,81.90
2018-04-07T02:38:37.263Z,81.90
2018-04-07T02:41:04.813Z,82.30
2018-04-07T02:43:32.391Z,82.30
2018-04-07T02:45:59.971Z,82.30
2018-04-07T02:48:27.542Z,82.50
2018-04-07T02:50:55.108Z,82.70
2018-04-07T02:53:22.662Z,83.00
2018-04-07T02:55:50.244Z,82.70
2018-04-07T02:58:17.811Z,83.20
2018-04-07T03:00:45.432Z,83.50
2018-04-07T03:03:13.025Z,83.40
2018-04-07T03:05:40.610Z,83.70
2018-04-07T03:08:08.142Z,83.90
2018-04-07T03:10:35.723Z,84.10
2018-04-07T03:13:03.274Z,84.20
2018-04-07T03:15:30.843Z,84.40
2018-04-07T03:17:58.467Z,84.30
2018-04-07T03:20:26.069Z,84.40
2018-04-07T03:22:53.605Z,84.60
2018-04-07T03:25:21.158Z,84.40
2018-04-07T03:27:48.742Z,84.40
2018-04-07T03:30:16.333Z,84.40
2018-04-07T03:32:43.892Z,84.40
2018-04-07T03:35:11.454Z,84.40
2018-04-07T03:37:38.999Z,84.40
2018-04-07T03:40:06.572Z,84.40
2018-04-07T03:42:34.149Z,84.30
2018-04-07T03:45:01.683Z,84.40
2018-04-07T03:47:29.256Z,84.50
2018-04-07T03:49:56.818Z,84.80
2018-04-07T03:52:24.448Z,84.90
2018-04-07T03:54:52.009Z,85.60
2018-04-07T03:57:19.599Z,86.20
2018-04-07T03:59:47.142Z,86.30
2018-04-07T04:02:14.786Z,85.70
2018-04-07T04:04:42.386Z,86.00
2018-04-07T04:07:10.383Z,86.30
2018-04-07T04:09:37.943Z,86.30
2018-04-07T04:12:05.519Z,86.00
2018-04-07T04:14:33.085Z,87.10
2018-04-07T04:17:00.656Z,86.70
2018-04-07T04:19:28.203Z,86.70
2018-04-07T04:21:55.769Z,86.70
2018-04-07T04:24:23.295Z,86.60
2018-04-07T04:26:50.906Z,86.20
2018-04-07T04:29:18.460Z,86.00
2018-04-07T04:31:46.048Z,85.90
2018-04-07T04:34:13.629Z,86.20
2018-04-07T04:36:41.251Z,86.30
2018-04-07T04:39:08.822Z,86.40
2018-04-07T04:41:36.808Z,87.70
2018-04-07T04:44:04.358Z,87.70
2018-04-07T04:46:31.979Z,87.80
2018-04-07T04:48:59.553Z,87.10
2018-04-07T04:51:27.132Z,86.90
2018-04-07T04:53:54.729Z,86.80
2018-04-07T04:56:22.272Z,86.80
2018-04-07T04:58:49.865Z,87.10
2018-04-07T05:01:17.435Z,87.10
2018-04-07T05:03:45.009Z,87.20
2018-04-07T05:06:12.968Z,87.30
2018-04-07T05:08:40.563Z,87.30
2018-04-07T05:11:08.359Z,87.70
2018-04-07T05:13:35.932Z,88.00
2018-04-07T05:16:03.494Z,88.30
2018-04-07T05:18:31.116Z,88.10
2018-04-07T05:20:58.928Z,88.10
2018-04-07T05:23:26.555Z,88.10
2018-04-07T05:25:54.128Z,88.00
2018-04-07T05:28:21.724Z,87.60
2018-04-07T05:30:49.647Z,87.30
2018-04-07T05:33:17.272Z,87.30
2018-04-07T05:35:44.870Z,87.20
2018-04-07T05:38:12.444Z,87.10
2018-04-07T05:40:39.995Z,86.90
2018-04-07T05:43:07.609Z,86.90
2018-04-07T05:45:35.204Z,86.80
2018-04-07T05:48:02.901Z,86.70
2018-04-07T05:50:30.459Z,86.60
2018-04-07T05:52:58.067Z,86.60
2018-04-07T05:55:25.596Z,86.60
2018-04-07T05:57:53.178Z,86.60
2018-04-07T06:00:20.751Z,86.60
2018-04-07T06:02:49.192Z,86.60
2018-04-07T06:05:16.782Z,86.50
2018-04-07T06:07:44.357Z,86.40
2018-04-07T06:10:11.948Z,86.30
2018-04-07T06:12:39.540Z,85.90
2018-04-07T06:15:07.123Z,85.70
2018-04-07T06:17:34.654Z,85.60
2018-04-07T06:20:02.251Z,85.50
2018-04-07T06:22:29.816Z,85.20
2018-04-07T06:24:57.350Z,84.90
2018-04-07T06:27:24.887Z,84.80
2018-04-07T06:29:52.468Z,84.40
2018-04-07T06:32:20.030Z,84.20
2018-04-07T06:34:47.595Z,84.20
2018-04-07T06:37:15.136Z,84.00
2018-04-07T06:39:42.732Z,84.00
2018-04-07T06:42:10.328Z,84.00
2018-04-07T06:44:37.949Z,83.80
2018-04-07T06:47:05.524Z,83.60
2018-04-07T06:49:33.108Z,83.10
2018-04-07T06:52:00.667Z,83.00
2018-04-07T06:54:28.252Z,82.70
2018-04-07T06:56:55.770Z,82.50
2018-04-07T06:59:23.380Z,82.50
2018-04-07T07:01:50.927Z,81.70
2018-04-07T07:04:18.526Z,81.00
2018-04-07T07:06:46.072Z,79.80
2018-04-07T07:09:13.628Z,79.50
2018-04-07T07:11:41.227Z,78.90
2018-04-07T07:14:08.833Z,78.40
2018-04-07T07:16:36.391Z,78.10
2018-04-07T07:19:03.966Z,77.30
2018-04-07T07:21:31.528Z,77.60
2018-04-07T07:23:59.081Z,77.20
2018-04-07T07:26:26.668Z,77.20
2018-04-07T07:28:54.224Z,76.90
2018-04-07T07:31:21.781Z,77.20
2018-04-07T07:33:49.371Z,76.70
2018-04-07T07:36:16.976Z,76.20
2018-04-07T07:38:44.567Z,75.30
2018-04-07T07:41:12.166Z,75.80
2018-04-07T07:43:39.702Z,76.20
2018-04-07T07:46:07.237Z,74.30
2018-04-07T07:48:35.160Z,72.80
2018-04-07T07:51:02.725Z,72.80
2018-04-07T07:53:30.308Z,72.90
2018-04-07T07:55:58.246Z,72.60
2018-04-07T07:58:25.805Z,72.60
2018-04-07T08:00:53.390Z,72.00
2018-04-07T08:03:21.351Z,71.50
2018-04-07T08:05:48.970Z,71.50
2018-04-07T08:08:16.518Z,71.60
2018-04-07T08:10:44.099Z,70.50
2018-04-07T08:13:11.670Z,68.90
2018-04-07T08:15:39.364Z,68.60
2018-04-07T08:18:07.307Z,68.90
2018-04-07T08:20:34.920Z,68.90
2018-04-07T08:23:02.467Z,69.10
2018-04-07T08:25:30.059Z,67.00
2018-04-07T08:27:57.601Z,66.80
2018-04-07T08:30:25.231Z,65.50
2018-04-07T08:32:52.784Z,66.90
2018-04-07T08:35:20.390Z,66.60
2018-04-07T08:37:47.993Z,65.80
2018-04-07T08:40:15.626Z,64.90
2018-04-07T08:42:43.178Z,65.20
2018-04-07T08:45:10.724Z,64.30
2018-04-07T08:47:38.339Z,62.30
2018-04-07T08:50:05.927Z,63.10
2018-04-07T08:52:33.493Z,61.60
2018-04-07T08:55:01.034Z,60.00
2018-04-07T08:57:28.649Z,61.50
2018-04-07T08:59:56.190Z,62.70
2018-04-07T09:02:23.755Z,62.50
2018-04-07T09:04:51.342Z,62.20
2018-04-07T09:07:19.314Z,63.70
2018-04-07T09:09:46.914Z,63.70
2018-04-07T09:12:14.513Z,64.80
2018-04-07T09:14:42.112Z,64.20
2018-04-07T09:17:09.693Z,62.70
2018-04-07T09:19:37.253Z,61.20
2018-04-07T09:22:04.868Z,61.10
2018-04-07T09:24:32.436Z,59.60
2018-04-07T09:27:00.073Z,60.30
2018-04-07T09:29:27.670Z,62.10
2018-04-07T09:31:55.514Z,62.00
2018-04-07T09:34:23.074Z,61.30
2018-04-07T09:36:50.646Z,61.00
2018-04-07T09:39:18.192Z,59.60
2018-04-07T09:41:45.754Z,60.10
2018-04-07T09:44:13.325Z,60.70
2018-04-07T09:46:40.878Z,60.80
2018-04-07T09:49:08.492Z,58.00
2018-04-07T09:51:36.119Z,60.70
2018-04-07T09:54:03.744Z,60.00
2018-04-07T09:56:31.336Z,60.20
2018-04-07T09:58:58.871Z,59.80
2018-04-07T10:01:29.298Z,57.60
2018-04-07T10:03:56.896Z,58.70
2018-04-07T10:06:24.445Z,57.80
2018-04-07T10:08:52.014Z,57.00
2018-04-07T10:11:19.572Z,56.80
2018-04-07T10:13:47.117Z,58.50
2018-04-07T10:16:14.724Z,58.20
2018-04-07T10:18:42.324Z,59.30
2018-04-07T10:21:09.852Z,58.20
2018-04-07T10:23:37.455Z,58.80
2018-04-07T10:26:05.320Z,58.60
2018-04-07T10:28:32.938Z,56.90
2018-04-07T10:31:00.515Z,57.30
2018-04-07T10:33:28.127Z,57.50
2018-04-07T10:35:55.704Z,56.10
2018-04-07T10:38:23.672Z,56.10
2018-04-07T10:40:51.194Z,56.10
2018-04-07T10:43:18.758Z,58.20
2018-04-07T10:45:46.307Z,57.30
2018-04-07T10:48:13.933Z,55.20
2018-04-07T10:50:41.479Z,59.20
2018-04-07T10:53:09.018Z,60.90
2018-04-07T10:55:36.604Z,58.50
2018-04-07T10:58:04.187Z,58.50
2018-04-07T11:00:31.820Z,56.40
2018-04-07T11:02:59.391Z,57.80
2018-04-07T11:05:26.922Z,58.10
2018-04-07T11:07:54.494Z,56.10
2018-04-07T11:10:22.049Z,56.20
2018-04-07T11:12:49.625Z,54.20
2018-04-07T11:15:17.220Z,55.60
2018-04-07T11:17:44.791Z,56.00
2018-04-07T11:20:12.337Z,56.80
2018-04-07T11:22:39.924Z,55.80
2018-04-07T11:25:07.539Z,57.50
2018-04-07T11:27:35.158Z,57.00
2018-04-07T11:30:02.715Z,56.80
2018-04-07T11:32:30.420Z,55.40
2018-04-07T11:34:58.101Z,53.30
2018-04-07T11:37:25.687Z,55.20
2018-04-07T11:39:53.273Z,54.60
2018-04-07T11:42:20.846Z,54.30
2018-04-07T11:44:48.477Z,56.60
2018-04-07T11:47:16.019Z,56.80
2018-04-07T11:49:43.608Z,53.90
2018-04-07T11:52:11.148Z,53.80
2018-04-07T11:54:38.782Z,55.70
2018-04-07T11:57:06.742Z,55.20
2018-04-07T11:59:34.714Z,56.60
2018-04-07T12:02:02.699Z,55.70
2018-04-07T12:04:30.272Z,55.70
2018-04-07T12:06:57.826Z,55.00
2018-04-07T12:09:25.381Z,54.10
2018-04-07T12:11:52.959Z,53.70
2018-04-07T12:14:20.552Z,53.20
2018-04-07T12:16:48.077Z,54.10
2018-04-07T12:19:15.629Z,55.10
2018-04-07T12:21:43.202Z,57.20
2018-04-07T12:24:10.777Z,55.70
2018-04-07T12:26:38.380Z,55.10
2018-04-07T12:29:06.013Z,55.10
2018-04-07T12:31:33.540Z,52.90
2018-04-07T12:34:01.078Z,54.80
2018-04-07T12:36:28.627Z,52.80
2018-04-07T12:38:56.236Z,51.80
2018-04-07T12:41:23.768Z,51.20
2018-04-07T12:43:51.341Z,55.40
2018-04-07T12:46:18.883Z,53.30
2018-04-07T12:48:46.484Z,51.30
2018-04-07T12:51:14.431Z,53.00
2018-04-07T12:53:43.045Z,53.00
2018-04-07T12:56:10.612Z,53.60
2018-04-07T12:58:38.158Z,51.50
2018-04-07T13:01:05.738Z,51.50
2018-04-07T13:03:33.635Z,52.00
2018-04-07T13:06:01.299Z,50.90
2018-04-07T13:08:28.844Z,50.80
2018-04-07T13:10:56.458Z,51.00
2018-04-07T13:13:24.055Z,50.70
2018-04-07T13:15:51.636Z,49.40
2018-04-07T13:18:19.174Z,48.80
2018-04-07T13:20:46.749Z,47.10
2018-04-07T13:23:14.293Z,49.00
2018-04-07T13:25:41.857Z,48.80
2018-04-07T13:28:09.408Z,46.50
2018-04-07T13:30:36.979Z,49.30
2018-04-07T13:33:04.600Z,47.00
2018-04-07T13:35:32.204Z,47.70
2018-04-07T13:37:59.742Z,44.60
2018-04-07T13:40:27.339Z,45.60
2018-04-07T13:42:54.888Z,44.80
2018-04-07T13:45:22.492Z,47.30
2018-04-07T13:47:50.067Z,45.50
2018-04-07T13:50:17.697Z,48.00
2018-04-07T13:52:45.308Z,46.10
2018-04-07T13:55:12.916Z,45.00
2018-04-07T13:57:40.454Z,45.40
2018-04-07T14:00:08.077Z,45.30
2018-04-07T14:02:35.618Z,44.20
2018-04-07T14:05:03.202Z,43.80
2018-04-07T14:07:30.768Z,44.00
2018-04-07T14:09:58.368Z,44.10
2018-04-07T14:12:26.290Z,42.90
2018-04-07T14:14:53.834Z,42.90
2018-04-07T14:17:21.415Z,43.00
2018-04-07T14:19:48.949Z,42.20
2018-04-07T14:22:16.573Z,43.10
2018-04-07T14:24:44.194Z,41.70
2018-04-07T14:27:11.762Z,42.30
2018-04-07T14:29:39.317Z,41.70
2018-04-07T14:32:06.930Z,42.10
2018-04-07T14:34:34.452Z,42.10
2018-04-07T14:37:02.378Z,39.80
2018-04-07T14:39:29.943Z,39.80
2018-04-07T14:41:57.514Z,38.80
2018-04-07T14:44:25.086Z,38.70
2018-04-07T14:46:52.675Z,38.30
2018-04-07T14:49:20.238Z,37.60
2018-04-07T14:51:47.783Z,38.30
2018-04-07T14:54:15.359Z,39.70
2018-04-07T14:56:42.960Z,38.80
2018-04-07T14:59:10.527Z,38.80
2018-04-07T15:01:38.139Z,40.00
2018-04-07T15:04:05.702Z,39.90
2018-04-07T15:06:33.258Z,39.20
2018-04-07T15:09:01.029Z,40.20
2018-04-07T15:11:28.637Z,38.20
2018-04-07T15:13:56.215Z,38.00
2018-04-07T15:16:23.753Z,37.50
2018-04-07T15:18:51.328Z,36.90
2018-04-07T15:21:18.904Z,37.40
2018-04-07T15:23:46.471Z,37.50
2018-04-07T15:26:14.056Z,36.80
2018-04-07T15:28:41.658Z,38.70
2018-04-07T15:31:09.261Z,37.20
2018-04-07T15:33:37.192Z,36.80
2018-04-07T15:36:04.783Z,36.80
2018-04-07T15:38:32.328Z,36.60
2018-04-07T15:40:59.885Z,36.60
2018-04-07T15:43:27.457Z,37.30
2018-04-07T15:45:55.013Z,37.30
2018-04-07T15:48:22.596Z,37.40
2018-04-07T15:50:50.143Z,37.70
2018-04-07T15:53:17.725Z,39.00
2018-04-07T15:55:45.248Z,37.30
2018-04-07T15:58:12.842Z,37.80
2018-04-07T16:00:40.372Z,38.20
2018-04-07T16:03:07.949Z,38.00
2018-04-07T16:05:35.520Z,38.20
2018-04-07T16:08:03.142Z,37.20
2018-04-07T16:10:30.636Z,38.10
2018-04-07T16:12:58.222Z,38.00
2018-04-07T16:15:26.134Z,38.00
2018-04-07T16:17:54.103Z,38.60
2018-04-07T16:20:21.671Z,38.60
2018-04-07T16:22:49.291Z,39.00
2018-04-07T16:25:16.902Z,39.60
2018-04-07T16:27:44.454Z,39.20
2018-04-07T16:30:11.997Z,40.20
2018-04-07T16:32:39.573Z,38.90
2018-04-07T16:35:07.224Z,39.70
2018-04-07T16:37:34.852Z,40.20
2018-04-07T16:40:02.479Z,39.80
2018-04-07T16:42:30.526Z,40.90
2018-04-07T16:44:58.109Z,40.90
2018-04-07T16:47:25.709Z,40.70
2018-04-07T16:49:53.251Z,40.00
2018-04-07T16:52:20.841Z,41.60
2018-04-07T16:54:48.458Z,40.80
2018-04-07T16:57:16.437Z,41.40
2018-04-07T16:59:44.238Z,41.80
2018-04-07T17:02:11.950Z,42.10
2018-04-07T17:04:40.099Z,41.90
2018-04-07T17:07:07.701Z,41.90
2018-04-07T17:09:35.694Z,41.90
2018-04-07T17:12:03.711Z,42.50
2018-04-07T17:14:31.340Z,42.40
2018-04-07T17:16:58.910Z,43.40
2018-04-07T17:19:26.720Z,42.60
2018-04-07T17:21:54.714Z,43.50
2018-04-07T17:24:22.629Z,44.30
2018-04-07T17:26:50.705Z,44.60
2018-04-07T17:29:18.688Z,45.20
2018-04-07T17:31:46.517Z,45.50
2018-04-07T17:34:14.533Z,46.00
2018-04-07T17:36:43.246Z,45.80
2018-04-07T17:39:10.962Z,46.90
2018-04-07T17:41:38.532Z,47.60
2018-04-07T17:44:06.327Z,48.60
2018-04-07T17:46:33.905Z,49.80
2018-04-07T17:49:06.237Z,51.60
2018-04-07T17:51:29.562Z,51.60
2018-04-07T17:53:57.226Z,52.10
2018-04-07T17:56:24.812Z,52.80
2018-04-07T17:58:52.400Z,53.40
2018-04-07T18:01:20.069Z,53.90
2018-04-07T18:03:47.748Z,54.40
2018-04-07T18:06:15.869Z,55.20
2018-04-07T18:08:43.430Z,55.10
2018-04-07T18:11:11.021Z,55.50
2018-04-07T18:13:38.709Z,56.30
2018-04-07T18:16:16.756Z,57.30
2018-04-07T18:18:44.383Z,57.70
2018-04-07T18:21:11.951Z,57.90
2018-04-07T18:23:39.504Z,58.20
2018-04-07T18:26:07.076Z,59.10
2018-04-07T18:28:34.636Z,60.10
2018-04-07T18:31:02.253Z,60.60
2018-04-07T18:33:29.832Z,61.50
2018-04-07T18:35:57.484Z,62.10
2018-04-07T18:38:25.129Z,62.20
2018-04-07T18:40:53.082Z,62.40
2018-04-07T18:43:20.617Z,62.40
2018-04-07T18:45:48.179Z,63.10
2018-04-07T18:48:15.694Z,62.90
2018-04-07T18:50:43.274Z,63.00
2018-04-07T18:53:10.819Z,63.40
2018-04-07T18:55:38.376Z,63.50
2018-04-07T18:58:05.948Z,63.50
2018-04-07T19:00:33.541Z,64.50
2018-04-07T19:03:01.107Z,64.90
2018-04-07T19:05:28.728Z,65.40
2018-04-07T19:07:56.331Z,65.30
2018-04-07T19:10:23.917Z,65.60
2018-04-07T19:12:51.516Z,65.50
2018-04-07T19:15:19.152Z,66.00
2018-04-07T19:17:46.696Z,66.00
2018-04-07T19:20:14.310Z,66.40
2018-04-07T19:22:41.927Z,67.00
2018-04-07T19:25:09.569Z,67.30
2018-04-07T19:27:37.168Z,67.60
2018-04-07T19:30:04.728Z,67.80
2018-04-07T19:32:32.374Z,67.90
2018-04-07T19:35:00.001Z,68.20
2018-04-07T19:37:28.165Z,68.90
2018-04-07T19:39:55.782Z,68.90
2018-04-07T19:42:23.686Z,69.40
2018-04-07T19:44:51.268Z,69.50
2018-04-07T19:47:18.854Z,70.00
2018-04-07T19:49:46.449Z,70.60
2018-04-07T19:52:14.065Z,70.80
2018-04-07T19:54:41.624Z,71.30
2018-04-07T19:57:09.273Z,71.30
2018-04-07T19:59:36.817Z,71.70
2018-04-07T20:02:05.526Z,72.00
2018-04-07T20:04:33.143Z,72.00
2018-04-07T20:07:01.156Z,72.00
2018-04-07T20:09:28.714Z,72.00
2018-04-07T20:11:56.288Z,72.00
2018-04-07T20:14:23.865Z,72.10
2018-04-07T20:16:51.500Z,72.10
2018-04-07T20:19:19.058Z,72.40
2018-04-07T20:21:46.632Z,72.80
2018-04-07T20:24:14.188Z,73.00
2018-04-07T20:26:41.735Z,73.10
2018-04-07T20:29:09.279Z,73.40
2018-04-07T20:31:36.888Z,73.70
2018-04-07T20:34:04.506Z,74.00
2018-04-07T20:36:32.058Z,73.90
2018-04-07T20:38:59.631Z,74.10
2018-04-07T20:41:27.199Z,74.20
2018-04-07T20:43:54.767Z,74.30
2018-04-07T20:46:22.411Z,74.90
2018-04-07T20:48:50.015Z,75.70
2018-04-07T20:51:17.959Z,76.20
2018-04-07T20:53:45.540Z,76.20
2018-04-07T20:56:13.165Z,75.90
2018-04-07T20:58:40.800Z,76.30
2018-04-07T21:01:08.374Z,76.30
2018-04-07T21:03:35.936Z,76.50
2018-04-07T21:06:03.534Z,76.60
2018-04-07T21:08:31.520Z,76.80
2018-04-07T21:10:59.080Z,76.80
2018-04-07T21:13:26.697Z,76.90
2018-04-07T21:15:54.291Z,77.20
2018-04-07T21:18:24.020Z,77.10
2018-04-07T21:20:51.602Z,77.20
2018-04-07T21:23:19.260Z,77.60
2018-04-07T21:25:46.844Z,77.90
2018-04-07T21:28:14.456Z,78.10
2018-04-07T21:30:42.026Z,78.10
2018-04-07T21:33:10.696Z,78.20
2018-04-07T21:35:38.308Z,78.20
2018-04-07T21:38:05.902Z,78.20
2018-04-07T21:40:33.567Z,78.20
2018-04-07T21:43:01.238Z,78.30
2018-04-07T21:45:28.817Z,78.30
2018-04-07T21:47:56.514Z,78.50
2018-04-07T21:50:24.066Z,78.70
2018-04-07T21:52:51.640Z,79.30
2018-04-07T21:55:25.978Z,79.30
2018-04-07T21:57:53.577Z,79.30
2018-04-07T22:00:21.201Z,79.10
2018-04-07T22:02:48.760Z,79.20
2018-04-07T22:05:16.336Z,79.40
2018-04-07T22:07:43.889Z,79.60
2018-04-07T22:10:11.869Z,79.70
2018-04-07T22:12:39.657Z,79.90
2018-04-07T22:15:07.300Z,80.10
2018-04-07T22:17:34.842Z,80.20
2018-04-07T22:20:02.574Z,80.60
2018-04-07T22:22:30.125Z,80.50
2018-04-07T22:24:57.759Z,80.60
2018-04-07T22:27:25.453Z,80.90
2018-04-07T22:29:54.395Z,80.90
2018-04-07T22:32:22.072Z,81.00
2018-04-07T22:34:49.662Z,81.20
2018-04-07T22:37:17.216Z,81.30
2018-04-07T22:39:44.810Z,81.50
2018-04-07T22:42:12.346Z,81.40
2018-04-07T22:44:39.907Z,81.40
2018-04-07T22:47:07.493Z,81.40
2018-04-07T22:49:35.072Z,81.10
2018-04-07T22:52:02.632Z,81.10
2018-04-07T22:54:30.200Z,81.00
2018-04-07T22:56:57.746Z,80.90
2018-04-07T22:59:25.333Z,81.00
2018-04-07T23:01:52.958Z,81.10
2018-04-07T23:04:20.548Z,80.90
2018-04-07T23:06:48.151Z,80.90
2018-04-07T23:09:15.692Z,81.00
2018-04-07T23:11:43.246Z,81.00
2018-04-07T23:14:10.794Z,80.90
2018-04-07T23:16:38.372Z,81.10
2018-04-07T23:19:06.026Z,81.10
2018-04-07T23:21:33.605Z,81.50
2018-04-07T23:24:01.176Z,81.40
2018-04-07T23:26:28.777Z,81.60
2018-04-07T23:28:56.352Z,81.60
2018-04-07T23:31:23.910Z,82.00
2018-04-07T23:33:51.474Z,81.90
2018-04-07T23:36:19.065Z,81.70
2018-04-07T23:38:46.613Z,81.40
2018-04-07T23:41:14.411Z,81.20
2018-04-07T23:43:41.977Z,81.00
2018-04-07T23:46:09.565Z,81.00
2018-04-07T23:48:37.148Z,80.70
2018-04-07T23:51:04.727Z,80.90
2018-04-07T23:53:32.675Z,80.60
2018-04-07T23:56:00.245Z,80.60
2018-04-07T23:58:27.826Z,80.50
